sensor_id;sensor_type;location;lat;lon;timestamp;P1;durP1;ratioP1;P2;durP2;ratioP2
38557;SDS011;24333;42.626;23.308;2022-11-18T00:24:00;9.80;;;4.18;;
38557;SDS011;24333;42.626;23.308;2022-11-18T00:26:25;13.77;;;4.63;;
38557;SDS011;24333;42.626;23.308;2022-11-18T00:28:51;8.35;;;3.72;;
38557;SDS011;24333;42.626;23.308;2022-11-18T00:31:17;10.05;;;4.18;;
38557;SDS011;24333;42.626;23.308;2022-11-18T00:36:33;7.72;;;3.90;;
38557;SDS011;24333;42.626;23.308;2022-11-18T00:38:58;8.27;;;4.13;;
38557;SDS011;24333;42.626;23.308;2022-11-18T00:41:24;12.20;;;4.20;;
38557;SDS011;24333;42.626;23.308;2022-11-18T00:50:49;8.07;;;2.78;;
38557;SDS011;24333;42.626;23.308;2022-11-18T00:53:17;5.20;;;3.10;;
38557;SDS011;24333;42.626;23.308;2022-11-18T00:55:44;6.60;;;3.15;;
38557;SDS011;24333;42.626;23.308;2022-11-18T00:58:10;6.05;;;2.85;;
38557;SDS011;24333;42.626;23.308;2022-11-18T01:00:56;5.93;;;3.23;;
38557;SDS011;24333;42.626;23.308;2022-11-18T01:07:33;5.23;;;3.00;;
38557;SDS011;24333;42.626;23.308;2022-11-18T01:10:02;5.55;;;2.85;;
38557;SDS011;24333;42.626;23.308;2022-11-18T01:12:34;5.07;;;3.15;;
38557;SDS011;24333;42.626;23.308;2022-11-18T02:26:27;14.02;;;6.90;;
38557;SDS011;24333;42.626;23.308;2022-11-18T02:29:07;36.97;;;10.82;;
38557;SDS011;24333;42.626;23.308;2022-11-18T02:31:16;37.65;;;11.30;;
38557;SDS011;24333;42.626;23.308;2022-11-18T02:57:15;15.27;;;5.20;;
38557;SDS011;24333;42.626;23.308;2022-11-18T03:26:02;14.10;;;4.57;;
38557;SDS011;24333;42.626;23.308;2022-11-18T03:31:36;13.70;;;5.45;;
38557;SDS011;24333;42.626;23.308;2022-11-18T04:05:37;17.08;;;5.63;;
38557;SDS011;24333;42.626;23.308;2022-11-18T04:08:28;6.85;;;3.30;;
38557;SDS011;24333;42.626;23.308;2022-11-18T04:24:55;6.32;;;3.17;;
38557;SDS011;24333;42.626;23.308;2022-11-18T04:27:22;4.95;;;2.75;;
38557;SDS011;24333;42.626;23.308;2022-11-18T04:29:50;6.47;;;2.88;;
38557;SDS011;24333;42.626;23.308;2022-11-18T04:32:22;4.90;;;2.88;;
38557;SDS011;24333;42.626;23.308;2022-11-18T04:34:49;10.07;;;3.53;;
38557;SDS011;24333;42.626;23.308;2022-11-18T05:35:40;10.95;;;5.35;;
38557;SDS011;24333;42.626;23.308;2022-11-18T08:12:15;34.63;;;13.23;;
38557;SDS011;24333;42.626;23.308;2022-11-18T08:17:16;55.47;;;18.65;;
38557;SDS011;24333;42.626;23.308;2022-11-18T08:19:42;60.22;;;19.15;;
38557;SDS011;24333;42.626;23.308;2022-11-18T08:22:07;60.60;;;18.70;;
38557;SDS011;24333;42.626;23.308;2022-11-18T08:24:42;45.08;;;15.07;;
38557;SDS011;24333;42.626;23.308;2022-11-18T08:27:30;29.60;;;11.23;;
38557;SDS011;24333;42.626;23.308;2022-11-18T08:30:02;20.50;;;9.27;;
38557;SDS011;24333;42.626;23.308;2022-11-18T08:32:29;18.88;;;9.18;;
38557;SDS011;24333;42.626;23.308;2022-11-18T08:35:04;51.33;;;19.55;;
38557;SDS011;24333;42.626;23.308;2022-11-18T08:37:39;33.88;;;14.82;;
38557;SDS011;24333;42.626;23.308;2022-11-18T08:40:04;26.77;;;12.10;;
38557;SDS011;24333;42.626;23.308;2022-11-18T08:42:33;23.30;;;9.77;;
38557;SDS011;24333;42.626;23.308;2022-11-18T08:45:04;34.42;;;14.35;;
38557;SDS011;24333;42.626;23.308;2022-11-18T08:47:34;46.83;;;20.10;;
38557;SDS011;24333;42.626;23.308;2022-11-18T08:50:04;36.45;;;14.60;;
38557;SDS011;24333;42.626;23.308;2022-11-18T08:52:38;18.58;;;9.00;;
38557;SDS011;24333;42.626;23.308;2022-11-18T08:55:05;23.33;;;9.45;;
38557;SDS011;24333;42.626;23.308;2022-11-18T09:00:54;28.77;;;9.20;;
38557;SDS011;24333;42.626;23.308;2022-11-18T12:28:39;5.03;;;2.03;;
38557;SDS011;24333;42.626;23.308;2022-11-18T12:36:53;3.63;;;1.17;;
38557;SDS011;24333;42.626;23.308;2022-11-18T12:48:28;2.35;;;1.00;;
38557;SDS011;24333;42.626;23.308;2022-11-18T12:57:39;2.55;;;1.27;;
38557;SDS011;24333;42.626;23.308;2022-11-18T13:00:27;2.50;;;1.20;;
38557;SDS011;24333;42.626;23.308;2022-11-18T13:02:56;2.55;;;1.10;;
38557;SDS011;24333;42.626;23.308;2022-11-18T13:05:24;3.10;;;0.93;;
38557;SDS011;24333;42.626;23.308;2022-11-18T13:07:58;3.15;;;1.02;;
38557;SDS011;24333;42.626;23.308;2022-11-18T13:32:03;1.98;;;0.80;;
38557;SDS011;24333;42.626;23.308;2022-11-18T13:34:36;4.68;;;1.45;;
38557;SDS011;24333;42.626;23.308;2022-11-18T13:37:10;1.80;;;0.80;;
38557;SDS011;24333;42.626;23.308;2022-11-18T13:39:44;4.88;;;1.13;;
38557;SDS011;24333;42.626;23.308;2022-11-18T13:42:45;2.05;;;0.90;;
38557;SDS011;24333;42.626;23.308;2022-11-18T13:45:11;1.50;;;0.70;;
38557;SDS011;24333;42.626;23.308;2022-11-18T13:53:34;2.05;;;1.40;;
38557;SDS011;24333;42.626;23.308;2022-11-18T14:11:38;2.58;;;1.10;;
38557;SDS011;24333;42.626;23.308;2022-11-18T14:14:05;1.58;;;1.08;;
38557;SDS011;24333;42.626;23.308;2022-11-18T14:16:35;0.98;;;0.80;;
38557;SDS011;24333;42.626;23.308;2022-11-18T14:19:11;3.28;;;1.30;;
38557;SDS011;24333;42.626;23.308;2022-11-18T14:22:27;1.58;;;0.90;;
38557;SDS011;24333;42.626;23.308;2022-11-18T14:28:19;9.52;;;3.00;;
38557;SDS011;24333;42.626;23.308;2022-11-18T14:36:50;12.82;;;3.97;;
38557;SDS011;24333;42.626;23.308;2022-11-18T14:39:26;8.00;;;2.72;;
38557;SDS011;24333;42.626;23.308;2022-11-18T14:41:54;3.55;;;1.13;;
38557;SDS011;24333;42.626;23.308;2022-11-18T14:44:21;4.32;;;2.10;;
38557;SDS011;24333;42.626;23.308;2022-11-18T14:46:49;3.13;;;1.10;;
38557;SDS011;24333;42.626;23.308;2022-11-18T14:49:20;5.43;;;2.30;;
38557;SDS011;24333;42.626;23.308;2022-11-18T14:51:47;8.60;;;2.50;;
38557;SDS011;24333;42.626;23.308;2022-11-18T14:54:16;3.25;;;2.00;;
38557;SDS011;24333;42.626;23.308;2022-11-18T14:57:09;6.50;;;2.28;;
38557;SDS011;24333;42.626;23.308;2022-11-18T14:59:38;1.90;;;1.33;;
38557;SDS011;24333;42.626;23.308;2022-11-18T15:02:04;2.70;;;1.48;;
38557;SDS011;24333;42.626;23.308;2022-11-18T15:04:30;2.80;;;1.70;;
38557;SDS011;24333;42.626;23.308;2022-11-18T15:06:56;3.00;;;1.10;;
38557;SDS011;24333;42.626;23.308;2022-11-18T15:09:22;3.40;;;2.33;;
38557;SDS011;24333;42.626;23.308;2022-11-18T15:11:57;4.78;;;1.70;;
38557;SDS011;24333;42.626;23.308;2022-11-18T15:14:23;3.55;;;1.17;;
38557;SDS011;24333;42.626;23.308;2022-11-18T15:16:50;1.67;;;1.27;;
38557;SDS011;24333;42.626;23.308;2022-11-18T15:19:16;2.22;;;1.75;;
38557;SDS011;24333;42.626;23.308;2022-11-18T15:21:42;1.45;;;1.05;;
38557;SDS011;24333;42.626;23.308;2022-11-18T15:24:25;2.17;;;1.80;;
38557;SDS011;24333;42.626;23.308;2022-11-18T15:30:04;2.80;;;1.30;;
38557;SDS011;24333;42.626;23.308;2022-11-18T15:32:30;2.80;;;1.00;;
38557;SDS011;24333;42.626;23.308;2022-11-18T15:34:56;1.20;;;1.10;;
38557;SDS011;24333;42.626;23.308;2022-11-18T15:37:47;1.50;;;1.10;;
38557;SDS011;24333;42.626;23.308;2022-11-18T15:43:04;4.68;;;1.90;;
38557;SDS011;24333;42.626;23.308;2022-11-18T15:45:32;4.22;;;1.90;;
38557;SDS011;24333;42.626;23.308;2022-11-18T15:48:08;3.40;;;1.92;;
38557;SDS011;24333;42.626;23.308;2022-11-18T15:50:33;2.03;;;1.17;;
38557;SDS011;24333;42.626;23.308;2022-11-18T15:52:59;1.58;;;1.00;;
38557;SDS011;24333;42.626;23.308;2022-11-18T15:55:25;1.35;;;0.90;;
38557;SDS011;24333;42.626;23.308;2022-11-18T15:57:51;2.67;;;1.20;;
38557;SDS011;24333;42.626;23.308;2022-11-18T16:00:17;7.05;;;1.38;;
38557;SDS011;24333;42.626;23.308;2022-11-18T16:02:46;1.35;;;0.90;;
38557;SDS011;24333;42.626;23.308;2022-11-18T16:05:11;2.75;;;1.50;;
38557;SDS011;24333;42.626;23.308;2022-11-18T16:07:37;6.13;;;2.60;;
38557;SDS011;24333;42.626;23.308;2022-11-18T16:10:04;7.03;;;3.38;;
38557;SDS011;24333;42.626;23.308;2022-11-18T16:12:49;5.32;;;2.42;;
38557;SDS011;24333;42.626;23.308;2022-11-18T16:15:15;5.38;;;1.23;;
38557;SDS011;24333;42.626;23.308;2022-11-18T16:18:01;3.30;;;1.35;;
38557;SDS011;24333;42.626;23.308;2022-11-18T16:20:28;2.13;;;1.05;;
38557;SDS011;24333;42.626;23.308;2022-11-18T16:22:57;6.60;;;2.33;;
38557;SDS011;24333;42.626;23.308;2022-11-18T16:28:26;5.75;;;2.08;;
38557;SDS011;24333;42.626;23.308;2022-11-18T16:30:52;1.25;;;0.90;;
38557;SDS011;24333;42.626;23.308;2022-11-18T18:32:28;5.97;;;1.30;;
38557;SDS011;24333;42.626;23.308;2022-11-18T18:34:57;10.35;;;2.67;;
38557;SDS011;24333;42.626;23.308;2022-11-18T18:47:48;3.08;;;1.63;;
38557;SDS011;24333;42.626;23.308;2022-11-18T18:50:14;1.90;;;1.40;;
38557;SDS011;24333;42.626;23.308;2022-11-18T18:59:02;2.25;;;1.25;;
38557;SDS011;24333;42.626;23.308;2022-11-18T19:01:30;2.20;;;1.30;;
38557;SDS011;24333;42.626;23.308;2022-11-18T19:04:01;2.38;;;1.20;;
38557;SDS011;24333;42.626;23.308;2022-11-18T19:06:35;1.45;;;1.25;;
38557;SDS011;24333;42.626;23.308;2022-11-18T19:09:20;2.90;;;1.20;;
38557;SDS011;24333;42.626;23.308;2022-11-18T19:42:51;2.40;;;1.30;;
38557;SDS011;24333;42.626;23.308;2022-11-18T19:48:02;4.70;;;1.15;;
38557;SDS011;24333;42.626;23.308;2022-11-18T21:42:05;2.03;;;0.90;;
38557;SDS011;24333;42.626;23.308;2022-11-18T21:44:31;3.90;;;0.90;;
38557;SDS011;24333;42.626;23.308;2022-11-18T21:46:56;2.22;;;1.10;;
38557;SDS011;24333;42.626;23.308;2022-11-18T21:49:21;4.13;;;2.10;;
38557;SDS011;24333;42.626;23.308;2022-11-18T21:51:47;1.77;;;1.17;;
38557;SDS011;24333;42.626;23.308;2022-11-18T21:54:39;1.20;;;0.82;;
38557;SDS011;24333;42.626;23.308;2022-11-18T22:00:40;1.67;;;1.08;;
38557;SDS011;24333;42.626;23.308;2022-11-18T22:03:12;2.47;;;0.80;;
38557;SDS011;24333;42.626;23.308;2022-11-18T22:05:37;5.53;;;1.10;;
38557;SDS011;24333;42.626;23.308;2022-11-18T22:08:03;3.85;;;1.50;;
38557;SDS011;24333;42.626;23.308;2022-11-18T22:10:28;2.30;;;0.88;;
38557;SDS011;24333;42.626;23.308;2022-11-18T22:49:47;13.48;;;2.72;;
38557;SDS011;24333;42.626;23.308;2022-11-18T22:52:28;6.15;;;2.33;;
38557;SDS011;24333;42.626;23.308;2022-11-18T22:54:57;5.20;;;2.50;;
38557;SDS011;24333;42.626;23.308;2022-11-18T23:19:43;6.15;;;3.25;;
38557;SDS011;24333;42.626;23.308;2022-11-18T23:22:10;5.90;;;3.05;;
38557;SDS011;24333;42.626;23.308;2022-11-18T23:24:35;9.65;;;3.20;;
38557;SDS011;24333;42.626;23.308;2022-11-18T23:27:01;5.60;;;2.88;;
38557;SDS011;24333;42.626;23.308;2022-11-18T23:29:27;8.55;;;2.67;;
38557;SDS011;24333;42.626;23.308;2022-11-18T23:31:53;7.07;;;3.17;;
38557;SDS011;24333;42.626;23.308;2022-11-18T23:40:05;6.57;;;1.77;;
38557;SDS011;24333;42.626;23.308;2022-11-18T23:42:33;1.42;;;0.90;;
38557;SDS011;24333;42.626;23.308;2022-11-18T23:44:59;1.88;;;0.85;;
38557;SDS011;24333;42.626;23.308;2022-11-18T23:47:25;3.30;;;0.80;;
38557;SDS011;24333;42.626;23.308;2022-11-18T23:49:51;0.70;;;0.55;;
